Fox, Montana
Current Conditions -  °F | °C
As of 1:15 AM on Thursday 29 Jan 2015 (Local Time) from KPOY Reporting Station
Clear Clear  
Wind Chill: 23°   Ceiling: Unl
Heat Index: 30°   Visibility: 10mi
Dew Point: 25°   Wind: 8mph
Humidity: 80%   Direction: 310°NW
Pressure: 30.37"   Gusts: NA
Location:  45.3755°N, 109.216°W
Report Text: KPOY 290815Z AUTO 31007KT 10SM CLR M01/M04 A3037 RMK AO2
Loading
Personal Weather Stations






























Interactive Weather Map New forecast layout! Learn more

10-Day Weather Forecast

Advertisements
Track Severe Weather on mobile